SND830 YMLT-NZWN
Flight info
| Callsign | SND830 |
|---|---|
| Flight time | 3h 10m |
| Altitude | 39000 |
| Route | MOTRA DCT BOTGU M625 GOPLU |
| Aircraft | A20N/M-SDE2E3FGHIRWXY/LB1 |
Departure
| Time | 2026-05-05 10:54 |
|---|---|
| Airport | Launceston Airport (YMLT) |
Arrival
| Time | 2026-05-05 14:05 |
|---|---|
| Airport | Wellington International Airport (NZWN) |
| Time | Latitude | Longitude | Altitude | Speed | Heading |
|---|---|---|---|---|---|
| 2026-05-05 10:37 | -41.54981 | 147.21157 | 577 ft | 0 kts | 139° |
| 2026-05-05 10:51 | -41.54989 | 147.21168 | 592 ft | 4 kts | 130° |
| 2026-05-05 10:51 | -41.54990 | 147.21202 | 580 ft | 5 kts | 61° |
| 2026-05-05 10:51 | -41.54965 | 147.21250 | 579 ft | 5 kts | 64° |
| 2026-05-05 10:51 | -41.54963 | 147.21261 | 581 ft | 0 kts | 76° |
| 2026-05-05 10:52 | -41.54966 | 147.21294 | 583 ft | 7 kts | 120° |
| 2026-05-05 10:52 | -41.55034 | 147.21363 | 583 ft | 18 kts | 160° |
| 2026-05-05 10:52 | -41.55164 | 147.21465 | 585 ft | 23 kts | 146° |
| 2026-05-05 10:52 | -41.55229 | 147.21578 | 588 ft | 11 kts | 94° |
| 2026-05-05 10:53 | -41.55211 | 147.21649 | 590 ft | 5 kts | 49° |
| 2026-05-05 10:53 | -41.55175 | 147.21669 | 591 ft | 6 kts | 357° |
| 2026-05-05 10:53 | -41.55127 | 147.21642 | 592 ft | 9 kts | 310° |
| 2026-05-05 10:53 | -41.54946 | 147.21477 | 589 ft | 68 kts | 327° |
| 2026-05-05 10:54 | -41.54353 | 147.20969 | 593 ft | 131 kts | 327° |
| 2026-05-05 10:54 | -41.53486 | 147.20275 | 868 ft | 157 kts | 330° |
| 2026-05-05 10:54 | -41.52491 | 147.19532 | 1481 ft | 162 kts | 328° |
| 2026-05-05 10:54 | -41.51499 | 147.18730 | 2221 ft | 179 kts | 328° |
| 2026-05-05 10:55 | -41.50146 | 147.17994 | 2216 ft | 244 kts | 355° |
| 2026-05-05 10:55 | -41.48504 | 147.18593 | 2982 ft | 248 kts | 36° |
| 2026-05-05 10:55 | -41.47500 | 147.20376 | 3951 ft | 243 kts | 73° |
| 2026-05-05 10:55 | -41.47471 | 147.22589 | 4646 ft | 242 kts | 112° |
| 2026-05-05 10:56 | -41.48206 | 147.24590 | 5359 ft | 241 kts | 126° |
| 2026-05-05 10:56 | -41.49122 | 147.26460 | 6073 ft | 242 kts | 128° |
| 2026-05-05 10:56 | -41.50089 | 147.28347 | 6607 ft | 255 kts | 128° |
| 2026-05-05 10:56 | -41.51138 | 147.30387 | 7000 ft | 276 kts | 128° |
| 2026-05-05 10:57 | -41.52243 | 147.32537 | 7811 ft | 282 kts | 128° |
| 2026-05-05 10:57 | -41.53356 | 147.34714 | 8825 ft | 287 kts | 128° |
| 2026-05-05 10:57 | -41.54486 | 147.36939 | 9822 ft | 292 kts | 128° |
| 2026-05-05 10:57 | -41.55648 | 147.39236 | 10470 ft | 309 kts | 128° |
| 2026-05-05 10:58 | -41.56886 | 147.41671 | 10820 ft | 333 kts | 128° |
| 2026-05-05 10:58 | -41.58232 | 147.44300 | 11338 ft | 350 kts | 128° |
| 2026-05-05 10:58 | -41.59619 | 147.46998 | 12199 ft | 353 kts | 128° |
| 2026-05-05 10:58 | -41.61013 | 147.49723 | 13083 ft | 358 kts | 128° |
| 2026-05-05 10:59 | -41.62428 | 147.52503 | 13922 ft | 364 kts | 128° |
| 2026-05-05 10:59 | -41.63851 | 147.55305 | 14751 ft | 364 kts | 128° |
| 2026-05-05 10:59 | -41.65287 | 147.58141 | 15481 ft | 371 kts | 128° |
| 2026-05-05 10:59 | -41.66737 | 147.61018 | 16264 ft | 374 kts | 128° |
| 2026-05-05 11:00 | -41.68193 | 147.63912 | 17039 ft | 377 kts | 128° |
| 2026-05-05 11:00 | -41.69665 | 147.66840 | 17789 ft | 381 kts | 128° |
| 2026-05-05 11:00 | -41.71149 | 147.69796 | 18533 ft | 383 kts | 128° |
| 2026-05-05 11:00 | -41.72634 | 147.72769 | 19203 ft | 386 kts | 128° |
| 2026-05-05 11:01 | -41.74135 | 147.75778 | 19840 ft | 389 kts | 128° |
| 2026-05-05 11:01 | -41.75638 | 147.78813 | 20496 ft | 393 kts | 128° |
| 2026-05-05 11:01 | -41.77140 | 147.81840 | 21059 ft | 396 kts | 128° |
| 2026-05-05 11:01 | -41.78237 | 147.84060 | 21570 ft | 398 kts | 128° |
| 2026-05-05 11:02 | -41.78615 | 147.84828 | 21731 ft | 399 kts | 128° |
| 2026-05-05 11:02 | -41.79185 | 147.85984 | 21963 ft | 400 kts | 128° |
| 2026-05-05 11:02 | -41.80412 | 147.88475 | 22448 ft | 403 kts | 128° |
| 2026-05-05 11:03 | -41.81792 | 147.91283 | 23013 ft | 406 kts | 128° |
| 2026-05-05 11:03 | -41.82823 | 147.93386 | 23417 ft | 408 kts | 128° |
| 2026-05-05 11:03 | -41.83725 | 147.95225 | 23726 ft | 410 kts | 128° |
| 2026-05-05 11:06 | -41.84494 | 147.96797 | 23981 ft | 411 kts | 128° |
| 2026-05-05 11:06 | -41.84963 | 147.97757 | 24131 ft | 412 kts | 128° |
| 2026-05-05 11:06 | -41.85574 | 147.99013 | 24300 ft | 414 kts | 128° |
| 2026-05-05 11:07 | -41.87130 | 148.02228 | 24799 ft | 416 kts | 128° |
| 2026-05-05 11:07 | -41.88702 | 148.05498 | 25308 ft | 419 kts | 128° |
| 2026-05-05 11:07 | -41.90262 | 148.08747 | 25797 ft | 421 kts | 128° |
| 2026-05-05 11:07 | -41.91849 | 148.12076 | 26277 ft | 424 kts | 128° |
| 2026-05-05 11:08 | -41.93414 | 148.15370 | 26734 ft | 427 kts | 128° |
| 2026-05-05 11:08 | -41.95011 | 148.18744 | 27213 ft | 429 kts | 128° |
| 2026-05-05 11:08 | -41.96587 | 148.22068 | 27680 ft | 431 kts | 128° |
| 2026-05-05 11:08 | -41.98203 | 148.25486 | 28097 ft | 434 kts | 128° |
| 2026-05-05 11:09 | -41.99823 | 148.28918 | 28511 ft | 436 kts | 128° |
| 2026-05-05 11:09 | -42.01447 | 148.32373 | 28896 ft | 439 kts | 128° |
| 2026-05-05 11:09 | -42.02867 | 148.35400 | 29252 ft | 441 kts | 128° |
| 2026-05-05 11:10 | -42.04453 | 148.38787 | 29623 ft | 443 kts | 128° |
| 2026-05-05 11:10 | -42.06096 | 148.42304 | 30008 ft | 445 kts | 128° |
| 2026-05-05 11:10 | -42.07754 | 148.45845 | 30271 ft | 449 kts | 128° |
| 2026-05-05 11:11 | -42.09441 | 148.49410 | 30562 ft | 452 kts | 128° |
| 2026-05-05 11:11 | -42.11142 | 148.52986 | 30856 ft | 455 kts | 128° |
| 2026-05-05 11:11 | -42.12861 | 148.56574 | 31170 ft | 457 kts | 128° |
| 2026-05-05 11:11 | -42.14593 | 148.60169 | 31534 ft | 457 kts | 128° |
| 2026-05-05 11:12 | -42.16332 | 148.63757 | 31909 ft | 457 kts | 129° |
| 2026-05-05 11:12 | -42.18082 | 148.67350 | 32282 ft | 458 kts | 129° |
| 2026-05-05 11:12 | -42.19842 | 148.70928 | 32596 ft | 460 kts | 129° |
| 2026-05-05 11:12 | -42.21634 | 148.74521 | 32882 ft | 461 kts | 129° |
| 2026-05-05 11:13 | -42.23435 | 148.78109 | 33246 ft | 461 kts | 129° |
| 2026-05-05 11:13 | -42.25219 | 148.81646 | 33580 ft | 461 kts | 129° |
| 2026-05-05 11:13 | -42.27036 | 148.85224 | 33912 ft | 462 kts | 129° |
| 2026-05-05 11:13 | -42.28863 | 148.88805 | 34185 ft | 463 kts | 129° |
| 2026-05-05 11:14 | -42.30568 | 148.92520 | 34400 ft | 468 kts | 119° |
| 2026-05-05 11:14 | -42.31725 | 148.96655 | 34612 ft | 476 kts | 107° |
| 2026-05-05 11:14 | -42.32255 | 149.01090 | 34786 ft | 481 kts | 94° |
| 2026-05-05 11:14 | -42.32115 | 149.05609 | 35024 ft | 483 kts | 82° |
| 2026-05-05 11:15 | -42.31415 | 149.10054 | 35282 ft | 484 kts | 75° |
| 2026-05-05 11:15 | -42.30479 | 149.14431 | 35549 ft | 484 kts | 73° |
| 2026-05-05 11:15 | -42.29493 | 149.18776 | 35815 ft | 483 kts | 72° |
| 2026-05-05 11:15 | -42.28518 | 149.23113 | 36063 ft | 483 kts | 72° |
| 2026-05-05 11:16 | -42.27562 | 149.27463 | 36321 ft | 483 kts | 73° |
| 2026-05-05 11:16 | -42.26621 | 149.31821 | 36570 ft | 483 kts | 73° |
| 2026-05-05 11:16 | -42.25688 | 149.36174 | 36802 ft | 483 kts | 72° |
| 2026-05-05 11:16 | -42.24768 | 149.40476 | 37025 ft | 483 kts | 72° |
| 2026-05-05 11:17 | -42.23837 | 149.44829 | 37277 ft | 482 kts | 72° |
| 2026-05-05 11:17 | -42.22905 | 149.49178 | 37501 ft | 482 kts | 72° |
| 2026-05-05 11:17 | -42.21971 | 149.53521 | 37737 ft | 481 kts | 71° |
| 2026-05-05 11:17 | -42.21035 | 149.57854 | 37956 ft | 481 kts | 71° |
| 2026-05-05 11:18 | -42.20097 | 149.62183 | 38167 ft | 481 kts | 71° |
| 2026-05-05 11:18 | -42.19157 | 149.66512 | 38378 ft | 481 kts | 71° |
| 2026-05-05 11:18 | -42.18215 | 149.70838 | 38581 ft | 481 kts | 71° |
| 2026-05-05 11:18 | -42.17272 | 149.75160 | 38725 ft | 480 kts | 71° |
| 2026-05-05 11:19 | -42.16326 | 149.79487 | 38867 ft | 480 kts | 70° |
| 2026-05-05 11:19 | -42.14428 | 149.88137 | 38933 ft | 480 kts | 70° |
| 2026-05-05 11:20 | -42.12531 | 149.96749 | 38933 ft | 479 kts | 70° |
| 2026-05-05 11:20 | -42.10641 | 150.05297 | 38933 ft | 479 kts | 70° |
| 2026-05-05 11:21 | -42.08732 | 150.13894 | 38920 ft | 479 kts | 70° |
| 2026-05-05 11:21 | -42.06813 | 150.22507 | 38936 ft | 480 kts | 70° |
| 2026-05-05 11:22 | -42.04882 | 150.31131 | 38944 ft | 481 kts | 70° |
| 2026-05-05 11:22 | -42.02945 | 150.39748 | 38933 ft | 479 kts | 70° |
| 2026-05-05 11:23 | -42.01024 | 150.48265 | 38933 ft | 479 kts | 70° |
| 2026-05-05 11:23 | -41.99080 | 150.56850 | 38932 ft | 480 kts | 69° |
| 2026-05-05 11:24 | -41.97128 | 150.65440 | 38930 ft | 480 kts | 69° |
| 2026-05-05 11:24 | -41.95169 | 150.74021 | 38929 ft | 480 kts | 69° |
| 2026-05-05 11:25 | -41.93204 | 150.82601 | 38934 ft | 480 kts | 69° |
| 2026-05-05 11:25 | -41.91234 | 150.91170 | 38920 ft | 480 kts | 69° |
| 2026-05-05 11:26 | -41.89254 | 150.99748 | 38934 ft | 480 kts | 69° |
| 2026-05-05 11:26 | -41.87281 | 151.08264 | 38938 ft | 480 kts | 68° |
| 2026-05-05 11:27 | -41.85290 | 151.16821 | 38939 ft | 480 kts | 68° |
| 2026-05-05 11:27 | -41.83292 | 151.25377 | 38941 ft | 480 kts | 68° |
| 2026-05-05 11:28 | -41.81288 | 151.33926 | 38940 ft | 480 kts | 68° |
| 2026-05-05 11:28 | -41.79277 | 151.42469 | 38942 ft | 480 kts | 68° |
| 2026-05-05 11:29 | -41.77263 | 151.50998 | 38938 ft | 480 kts | 68° |
| 2026-05-05 11:29 | -41.75258 | 151.59457 | 38940 ft | 480 kts | 68° |
| 2026-05-05 11:30 | -41.73229 | 151.67984 | 38933 ft | 479 kts | 67° |
| 2026-05-05 11:30 | -41.71198 | 151.76487 | 38939 ft | 479 kts | 67° |
| 2026-05-05 11:31 | -41.69160 | 151.84987 | 38938 ft | 479 kts | 67° |
| 2026-05-05 11:31 | -41.67131 | 151.93423 | 38939 ft | 479 kts | 67° |
| 2026-05-05 11:32 | -41.65081 | 152.01911 | 38944 ft | 479 kts | 67° |
| 2026-05-05 11:32 | -41.63025 | 152.10396 | 38936 ft | 479 kts | 66° |
| 2026-05-05 11:33 | -41.60964 | 152.18870 | 38945 ft | 479 kts | 66° |
| 2026-05-05 11:33 | -41.58895 | 152.27344 | 38941 ft | 479 kts | 66° |
| 2026-05-05 11:34 | -41.56833 | 152.35756 | 38942 ft | 479 kts | 66° |
| 2026-05-05 11:34 | -41.54751 | 152.44225 | 38926 ft | 479 kts | 66° |
| 2026-05-05 11:35 | -41.52665 | 152.52676 | 38943 ft | 479 kts | 66° |
| 2026-05-05 11:35 | -41.50573 | 152.61122 | 38943 ft | 480 kts | 66° |
| 2026-05-05 11:36 | -41.48467 | 152.69588 | 38954 ft | 480 kts | 66° |
| 2026-05-05 11:36 | -41.46357 | 152.78047 | 38959 ft | 481 kts | 66° |
| 2026-05-05 11:37 | -41.44241 | 152.86502 | 38956 ft | 481 kts | 65° |
| 2026-05-05 11:37 | -41.42129 | 152.94904 | 38960 ft | 481 kts | 65° |
| 2026-05-05 11:38 | -41.40092 | 153.02984 | 38964 ft | 481 kts | 65° |
| 2026-05-05 11:38 | -41.38300 | 153.10068 | 38967 ft | 482 kts | 65° |
| 2026-05-05 11:39 | -41.36171 | 153.18461 | 38952 ft | 481 kts | 65° |
| 2026-05-05 11:39 | -41.34018 | 153.26914 | 38967 ft | 481 kts | 65° |
| 2026-05-05 11:40 | -41.31864 | 153.35341 | 38969 ft | 481 kts | 65° |
| 2026-05-05 11:40 | -41.29699 | 153.43778 | 38963 ft | 481 kts | 65° |
| 2026-05-05 11:41 | -41.27539 | 153.52176 | 38967 ft | 479 kts | 64° |
| 2026-05-05 11:41 | -41.25388 | 153.60501 | 38967 ft | 481 kts | 64° |
| 2026-05-05 11:42 | -41.23207 | 153.68915 | 38969 ft | 481 kts | 64° |
| 2026-05-05 11:42 | -41.21026 | 153.77306 | 38973 ft | 479 kts | 64° |
| 2026-05-05 11:43 | -41.18851 | 153.85645 | 38964 ft | 477 kts | 64° |
| 2026-05-05 11:43 | -41.16673 | 153.93961 | 38954 ft | 475 kts | 64° |
| 2026-05-05 11:44 | -41.14483 | 154.02284 | 38973 ft | 481 kts | 64° |
| 2026-05-05 11:44 | -41.12279 | 154.10649 | 38977 ft | 477 kts | 64° |
| 2026-05-05 11:45 | -41.10083 | 154.18954 | 38977 ft | 478 kts | 64° |
| 2026-05-05 11:45 | -41.07888 | 154.27217 | 38980 ft | 478 kts | 64° |
| 2026-05-05 11:46 | -41.05677 | 154.35520 | 38973 ft | 479 kts | 64° |
| 2026-05-05 11:46 | -41.03458 | 154.43828 | 38976 ft | 477 kts | 63° |
| 2026-05-05 11:47 | -41.01240 | 154.52101 | 38971 ft | 475 kts | 63° |
| 2026-05-05 11:47 | -40.99024 | 154.60337 | 38966 ft | 474 kts | 63° |
| 2026-05-05 11:48 | -40.95698 | 154.72653 | 38939 ft | 473 kts | 63° |
| 2026-05-05 11:48 | -40.93475 | 154.80835 | 38980 ft | 478 kts | 63° |
| 2026-05-05 11:49 | -40.91224 | 154.89107 | 38980 ft | 477 kts | 63° |
| 2026-05-05 11:49 | -40.88970 | 154.97366 | 38980 ft | 477 kts | 63° |
| 2026-05-05 11:50 | -40.86713 | 155.05607 | 38980 ft | 477 kts | 62° |
| 2026-05-05 11:50 | -40.84452 | 155.13834 | 38970 ft | 476 kts | 62° |
| 2026-05-05 11:51 | -40.82198 | 155.22006 | 38977 ft | 476 kts | 62° |
| 2026-05-05 11:51 | -40.79926 | 155.30220 | 38975 ft | 477 kts | 62° |
| 2026-05-05 11:52 | -40.77640 | 155.38457 | 38977 ft | 477 kts | 62° |
| 2026-05-05 11:52 | -40.75354 | 155.46665 | 38979 ft | 477 kts | 62° |
| 2026-05-05 11:53 | -40.73058 | 155.54884 | 38972 ft | 477 kts | 62° |
| 2026-05-05 11:53 | -40.70776 | 155.63026 | 38966 ft | 477 kts | 62° |
| 2026-05-05 11:54 | -40.68472 | 155.71223 | 38980 ft | 477 kts | 62° |
| 2026-05-05 11:54 | -40.66162 | 155.79410 | 38979 ft | 477 kts | 62° |
| 2026-05-05 11:55 | -40.63848 | 155.87590 | 38976 ft | 477 kts | 62° |
| 2026-05-05 11:55 | -40.61526 | 155.95771 | 38973 ft | 476 kts | 62° |
| 2026-05-05 11:56 | -40.59215 | 156.03887 | 38974 ft | 476 kts | 62° |
| 2026-05-05 11:56 | -40.56884 | 156.12045 | 38970 ft | 476 kts | 62° |
| 2026-05-05 11:57 | -40.54549 | 156.20196 | 38971 ft | 476 kts | 62° |
| 2026-05-05 11:57 | -40.52208 | 156.28341 | 38969 ft | 476 kts | 61° |
| 2026-05-05 11:58 | -40.49861 | 156.36482 | 38957 ft | 476 kts | 61° |
| 2026-05-05 11:58 | -40.47507 | 156.44618 | 38954 ft | 476 kts | 61° |
| 2026-05-05 11:59 | -40.45163 | 156.52707 | 38955 ft | 477 kts | 61° |
| 2026-05-05 11:59 | -40.42801 | 156.60844 | 38952 ft | 477 kts | 61° |
| 2026-05-05 12:00 | -40.40430 | 156.68988 | 38955 ft | 478 kts | 61° |
| 2026-05-05 12:00 | -40.38780 | 156.77477 | 38953 ft | 494 kts | 78° |
| 2026-05-05 12:01 | -40.39061 | 156.86471 | 38954 ft | 508 kts | 96° |
| 2026-05-05 12:01 | -40.40433 | 156.95594 | 38948 ft | 509 kts | 96° |
| 2026-05-05 12:02 | -40.41796 | 157.04717 | 38957 ft | 510 kts | 96° |
| 2026-05-05 12:02 | -40.43153 | 157.13863 | 38972 ft | 511 kts | 96° |
| 2026-05-05 12:03 | -40.44493 | 157.22970 | 38967 ft | 511 kts | 96° |
| 2026-05-05 12:03 | -40.45827 | 157.32097 | 38970 ft | 507 kts | 96° |
| 2026-05-05 12:04 | -40.47148 | 157.41209 | 38970 ft | 508 kts | 96° |
| 2026-05-05 12:04 | -40.48465 | 157.50342 | 38974 ft | 508 kts | 96° |
| 2026-05-05 12:05 | -40.49773 | 157.59454 | 38973 ft | 505 kts | 96° |
| 2026-05-05 12:05 | -40.51058 | 157.68470 | 38988 ft | 506 kts | 96° |
| 2026-05-05 12:06 | -40.52344 | 157.77554 | 38985 ft | 505 kts | 96° |
| 2026-05-05 12:06 | -40.53626 | 157.86652 | 38987 ft | 505 kts | 96° |
| 2026-05-05 12:07 | -40.54898 | 157.95734 | 38989 ft | 504 kts | 96° |
| 2026-05-05 12:07 | -40.56162 | 158.04812 | 38985 ft | 504 kts | 96° |
| 2026-05-05 12:08 | -40.57411 | 158.13835 | 38989 ft | 503 kts | 96° |
| 2026-05-05 12:08 | -40.58657 | 158.22900 | 38984 ft | 503 kts | 96° |
| 2026-05-05 12:09 | -40.59894 | 158.31948 | 38991 ft | 502 kts | 96° |
| 2026-05-05 12:09 | -40.61125 | 158.41005 | 38990 ft | 502 kts | 96° |
| 2026-05-05 12:10 | -40.62347 | 158.50056 | 38996 ft | 502 kts | 95° |
| 2026-05-05 12:10 | -40.63558 | 158.59078 | 38999 ft | 503 kts | 95° |
| 2026-05-05 12:11 | -40.64769 | 158.68153 | 39010 ft | 503 kts | 95° |
| 2026-05-05 12:11 | -40.65974 | 158.77243 | 39018 ft | 504 kts | 95° |
| 2026-05-05 12:12 | -40.67171 | 158.86329 | 39009 ft | 504 kts | 95° |
| 2026-05-05 12:12 | -40.68355 | 158.95381 | 39020 ft | 504 kts | 95° |
| 2026-05-05 12:13 | -40.69541 | 159.04499 | 39027 ft | 505 kts | 95° |
| 2026-05-05 12:13 | -40.70722 | 159.13646 | 39045 ft | 507 kts | 95° |
| 2026-05-05 12:14 | -40.71895 | 159.22779 | 39031 ft | 503 kts | 96° |
| 2026-05-05 12:14 | -40.73054 | 159.31872 | 39043 ft | 503 kts | 96° |
| 2026-05-05 12:15 | -40.74208 | 159.40986 | 39045 ft | 504 kts | 95° |
| 2026-05-05 12:15 | -40.75348 | 159.50045 | 39044 ft | 504 kts | 95° |
| 2026-05-05 12:16 | -40.75989 | 159.55165 | 39051 ft | 503 kts | 96° |
| 2026-05-05 12:16 | -40.77025 | 159.63483 | 39055 ft | 503 kts | 96° |
| 2026-05-05 12:17 | -40.78151 | 159.72560 | 39062 ft | 501 kts | 96° |
| 2026-05-05 12:17 | -40.79271 | 159.81658 | 39065 ft | 502 kts | 96° |
| 2026-05-05 12:18 | -40.80372 | 159.90675 | 39061 ft | 498 kts | 96° |
| 2026-05-05 12:18 | -40.81468 | 159.99697 | 39071 ft | 498 kts | 96° |
| 2026-05-05 12:19 | -40.82559 | 160.08744 | 39077 ft | 499 kts | 96° |
| 2026-05-05 12:19 | -40.83642 | 160.17791 | 39079 ft | 498 kts | 96° |
| 2026-05-05 12:20 | -40.84716 | 160.26811 | 39083 ft | 492 kts | 96° |
| 2026-05-05 12:20 | -40.85771 | 160.35749 | 39090 ft | 494 kts | 96° |
| 2026-05-05 12:21 | -40.86817 | 160.44670 | 39088 ft | 494 kts | 96° |
| 2026-05-05 12:21 | -40.87861 | 160.53629 | 39097 ft | 493 kts | 96° |
| 2026-05-05 12:22 | -40.88893 | 160.62550 | 39104 ft | 489 kts | 96° |
| 2026-05-05 12:22 | -40.89916 | 160.71449 | 39102 ft | 491 kts | 96° |
| 2026-05-05 12:23 | -40.90934 | 160.80374 | 39111 ft | 490 kts | 96° |
| 2026-05-05 12:23 | -40.91938 | 160.89237 | 39104 ft | 490 kts | 96° |
| 2026-05-05 12:24 | -40.92936 | 160.98106 | 39119 ft | 486 kts | 96° |
| 2026-05-05 12:24 | -40.93926 | 161.06969 | 39127 ft | 487 kts | 96° |
| 2026-05-05 12:25 | -40.94909 | 161.15830 | 39136 ft | 487 kts | 96° |
| 2026-05-05 12:25 | -40.95885 | 161.24696 | 39127 ft | 484 kts | 96° |
| 2026-05-05 12:26 | -40.96843 | 161.33456 | 39141 ft | 480 kts | 96° |
| 2026-05-05 12:26 | -40.97795 | 161.42241 | 39143 ft | 482 kts | 96° |
| 2026-05-05 12:27 | -40.98733 | 161.50949 | 39149 ft | 481 kts | 96° |
| 2026-05-05 12:27 | -40.99674 | 161.59739 | 39145 ft | 480 kts | 96° |
| 2026-05-05 12:28 | -41.00601 | 161.68467 | 39146 ft | 478 kts | 96° |
| 2026-05-05 12:28 | -41.01518 | 161.77176 | 39137 ft | 477 kts | 96° |
| 2026-05-05 12:29 | -41.02428 | 161.85870 | 39136 ft | 476 kts | 95° |
| 2026-05-05 12:29 | -41.03181 | 161.93120 | 39162 ft | 480 kts | 95° |
| 2026-05-05 12:30 | -41.04187 | 162.02871 | 39171 ft | 479 kts | 95° |
| 2026-05-05 12:30 | -41.05084 | 162.11636 | 39171 ft | 480 kts | 95° |
| 2026-05-05 12:31 | -41.05824 | 162.18920 | 39172 ft | 480 kts | 95° |
| 2026-05-05 12:31 | -41.06708 | 162.27687 | 39181 ft | 479 kts | 95° |
| 2026-05-05 12:32 | -41.07585 | 162.36446 | 39182 ft | 479 kts | 95° |
| 2026-05-05 12:32 | -41.08456 | 162.45220 | 39195 ft | 479 kts | 95° |
| 2026-05-05 12:33 | -41.09319 | 162.53980 | 39201 ft | 479 kts | 95° |
| 2026-05-05 12:33 | -41.10170 | 162.62693 | 39186 ft | 479 kts | 95° |
| 2026-05-05 12:34 | -41.11020 | 162.71458 | 39196 ft | 479 kts | 95° |
| 2026-05-05 12:34 | -41.11866 | 162.80228 | 39203 ft | 479 kts | 95° |
| 2026-05-05 12:35 | -41.12704 | 162.88951 | 39203 ft | 479 kts | 95° |
| 2026-05-05 12:35 | -41.13540 | 162.97729 | 39207 ft | 479 kts | 95° |
| 2026-05-05 12:36 | -41.14129 | 163.06521 | 39215 ft | 478 kts | 92° |
| 2026-05-05 12:36 | -41.14722 | 163.15308 | 39216 ft | 478 kts | 93° |
| 2026-05-05 12:37 | -41.15323 | 163.24103 | 39227 ft | 478 kts | 93° |
| 2026-05-05 12:37 | -41.15907 | 163.32905 | 39237 ft | 478 kts | 93° |
| 2026-05-05 12:38 | -41.16480 | 163.41708 | 39241 ft | 478 kts | 93° |
| 2026-05-05 12:38 | -41.17040 | 163.50454 | 39237 ft | 478 kts | 93° |
| 2026-05-05 12:39 | -41.17592 | 163.59248 | 39247 ft | 478 kts | 93° |
| 2026-05-05 12:39 | -41.18138 | 163.68048 | 39258 ft | 477 kts | 93° |
| 2026-05-05 12:40 | -41.18677 | 163.76838 | 39255 ft | 477 kts | 93° |
| 2026-05-05 12:40 | -41.19208 | 163.85617 | 39255 ft | 477 kts | 93° |
| 2026-05-05 12:41 | -41.19729 | 163.94334 | 39260 ft | 476 kts | 92° |
| 2026-05-05 12:41 | -41.20247 | 164.03110 | 39267 ft | 476 kts | 92° |
| 2026-05-05 12:42 | -41.20757 | 164.11868 | 39270 ft | 475 kts | 92° |
| 2026-05-05 12:42 | -41.21260 | 164.20622 | 39270 ft | 475 kts | 92° |
| 2026-05-05 12:43 | -41.21754 | 164.29330 | 39270 ft | 474 kts | 92° |
| 2026-05-05 12:43 | -41.22242 | 164.38072 | 39275 ft | 474 kts | 92° |
| 2026-05-05 12:44 | -41.22723 | 164.46793 | 39274 ft | 473 kts | 92° |
| 2026-05-05 12:44 | -41.23199 | 164.55523 | 39280 ft | 473 kts | 92° |
| 2026-05-05 12:45 | -41.23667 | 164.64244 | 39286 ft | 473 kts | 92° |
| 2026-05-05 12:45 | -41.24124 | 164.72905 | 39283 ft | 472 kts | 92° |
| 2026-05-05 12:46 | -41.24578 | 164.81626 | 39297 ft | 472 kts | 92° |
| 2026-05-05 12:46 | -41.25026 | 164.90331 | 39293 ft | 472 kts | 92° |
| 2026-05-05 12:47 | -41.25463 | 164.98974 | 39297 ft | 471 kts | 92° |
| 2026-05-05 12:47 | -41.25897 | 165.07674 | 39310 ft | 471 kts | 92° |
| 2026-05-05 12:48 | -41.26324 | 165.16370 | 39310 ft | 471 kts | 92° |
| 2026-05-05 12:48 | -41.26743 | 165.25054 | 39309 ft | 471 kts | 92° |
| 2026-05-05 12:49 | -41.27157 | 165.33743 | 39307 ft | 471 kts | 92° |
| 2026-05-05 12:49 | -41.27564 | 165.42433 | 39310 ft | 470 kts | 92° |
| 2026-05-05 12:50 | -41.27961 | 165.51062 | 39317 ft | 470 kts | 92° |
| 2026-05-05 12:50 | -41.28354 | 165.59745 | 39311 ft | 470 kts | 92° |
| 2026-05-05 12:51 | -41.28741 | 165.68423 | 39315 ft | 470 kts | 92° |
| 2026-05-05 12:51 | -41.29121 | 165.77106 | 39315 ft | 470 kts | 92° |
| 2026-05-05 12:52 | -41.29494 | 165.85786 | 39325 ft | 470 kts | 92° |
| 2026-05-05 12:52 | -41.29862 | 165.94474 | 39328 ft | 471 kts | 92° |
| 2026-05-05 12:53 | -41.30221 | 166.03121 | 39330 ft | 471 kts | 92° |
| 2026-05-05 12:53 | -41.30576 | 166.11821 | 39241 ft | 471 kts | 92° |
| 2026-05-05 12:54 | -41.30923 | 166.20511 | 38910 ft | 469 kts | 92° |
| 2026-05-05 12:54 | -41.31095 | 166.24855 | 38722 ft | 468 kts | 92° |
| 2026-05-05 12:54 | -41.31264 | 166.29186 | 38523 ft | 469 kts | 92° |
| 2026-05-05 12:55 | -41.31432 | 166.33524 | 38330 ft | 470 kts | 92° |
| 2026-05-05 12:55 | -41.31599 | 166.37880 | 38141 ft | 469 kts | 92° |
| 2026-05-05 12:55 | -41.31763 | 166.42206 | 37950 ft | 468 kts | 91° |
| 2026-05-05 12:55 | -41.31924 | 166.46483 | 37763 ft | 469 kts | 92° |
| 2026-05-05 12:56 | -41.32085 | 166.50815 | 37583 ft | 469 kts | 91° |
| 2026-05-05 12:56 | -41.32244 | 166.55153 | 37395 ft | 469 kts | 92° |
| 2026-05-05 12:56 | -41.32402 | 166.59494 | 37217 ft | 468 kts | 91° |
| 2026-05-05 12:56 | -41.32558 | 166.63806 | 37024 ft | 467 kts | 91° |
| 2026-05-05 12:57 | -41.32712 | 166.68144 | 36851 ft | 470 kts | 91° |
| 2026-05-05 12:57 | -41.32866 | 166.72491 | 36670 ft | 468 kts | 91° |
| 2026-05-05 12:57 | -41.33017 | 166.76819 | 36492 ft | 468 kts | 91° |
| 2026-05-05 12:57 | -41.33165 | 166.81108 | 36328 ft | 470 kts | 91° |
| 2026-05-05 12:58 | -41.33313 | 166.85442 | 36150 ft | 467 kts | 91° |
| 2026-05-05 12:58 | -41.33460 | 166.89772 | 35974 ft | 467 kts | 91° |
| 2026-05-05 12:58 | -41.33604 | 166.94089 | 35805 ft | 467 kts | 91° |
| 2026-05-05 12:58 | -41.33746 | 166.98404 | 35632 ft | 466 kts | 91° |
| 2026-05-05 12:59 | -41.33888 | 167.02727 | 35463 ft | 468 kts | 91° |
| 2026-05-05 12:59 | -41.34027 | 167.07051 | 35292 ft | 467 kts | 91° |
| 2026-05-05 12:59 | -41.34165 | 167.11359 | 35131 ft | 465 kts | 91° |
| 2026-05-05 13:00 | -41.34436 | 167.19987 | 34800 ft | 465 kts | 91° |
| 2026-05-05 13:00 | -41.34569 | 167.24301 | 34635 ft | 467 kts | 91° |
| 2026-05-05 13:01 | -41.34957 | 167.37223 | 34107 ft | 469 kts | 91° |
| 2026-05-05 13:01 | -41.35084 | 167.41570 | 33924 ft | 469 kts | 91° |
| 2026-05-05 13:01 | -41.35210 | 167.45904 | 33735 ft | 467 kts | 91° |
| 2026-05-05 13:01 | -41.35334 | 167.50253 | 33550 ft | 470 kts | 91° |
| 2026-05-05 13:02 | -41.35456 | 167.54587 | 33368 ft | 468 kts | 91° |
| 2026-05-05 13:02 | -41.35577 | 167.58926 | 33186 ft | 469 kts | 91° |
| 2026-05-05 13:02 | -41.35694 | 167.63273 | 33002 ft | 470 kts | 91° |
| 2026-05-05 13:02 | -41.35811 | 167.67609 | 32819 ft | 468 kts | 91° |
| 2026-05-05 13:03 | -41.35928 | 167.71968 | 32644 ft | 472 kts | 91° |
| 2026-05-05 13:03 | -41.36043 | 167.76333 | 32462 ft | 470 kts | 91° |
| 2026-05-05 13:03 | -41.36156 | 167.80678 | 32289 ft | 470 kts | 91° |
| 2026-05-05 13:03 | -41.36267 | 167.85032 | 32114 ft | 472 kts | 91° |
| 2026-05-05 13:04 | -41.36375 | 167.89324 | 31942 ft | 468 kts | 91° |
| 2026-05-05 13:04 | -41.36483 | 167.93659 | 31765 ft | 470 kts | 91° |
| 2026-05-05 13:04 | -41.36588 | 167.98013 | 31601 ft | 471 kts | 91° |
| 2026-05-05 13:04 | -41.36693 | 168.02347 | 31425 ft | 468 kts | 91° |
| 2026-05-05 13:05 | -41.36796 | 168.06695 | 31258 ft | 470 kts | 91° |
| 2026-05-05 13:05 | -41.36897 | 168.11045 | 31086 ft | 468 kts | 92° |
| 2026-05-05 13:05 | -41.36995 | 168.15356 | 30917 ft | 466 kts | 92° |
| 2026-05-05 13:05 | -41.37093 | 168.19671 | 30747 ft | 465 kts | 91° |
| 2026-05-05 13:06 | -41.37187 | 168.23951 | 30580 ft | 462 kts | 91° |
| 2026-05-05 13:06 | -41.37280 | 168.28185 | 30414 ft | 462 kts | 91° |
| 2026-05-05 13:06 | -41.37371 | 168.32432 | 30224 ft | 459 kts | 91° |
| 2026-05-05 13:06 | -41.37460 | 168.36648 | 30027 ft | 457 kts | 91° |
| 2026-05-05 13:07 | -41.37548 | 168.40889 | 29832 ft | 458 kts | 91° |
| 2026-05-05 13:07 | -41.37634 | 168.45110 | 29623 ft | 454 kts | 91° |
| 2026-05-05 13:07 | -41.37717 | 168.49296 | 29410 ft | 452 kts | 91° |
| 2026-05-05 13:07 | -41.37799 | 168.53488 | 29191 ft | 452 kts | 91° |
| 2026-05-05 13:08 | -41.37879 | 168.57658 | 28980 ft | 449 kts | 91° |
| 2026-05-05 13:08 | -41.37958 | 168.61818 | 28763 ft | 449 kts | 91° |
| 2026-05-05 13:08 | -41.38034 | 168.65970 | 28542 ft | 446 kts | 91° |
| 2026-05-05 13:08 | -41.38108 | 168.70038 | 28347 ft | 445 kts | 90° |
| 2026-05-05 13:09 | -41.38182 | 168.74152 | 28132 ft | 444 kts | 90° |
| 2026-05-05 13:09 | -41.38253 | 168.78246 | 27925 ft | 441 kts | 90° |
| 2026-05-05 13:09 | -41.38323 | 168.82326 | 27719 ft | 441 kts | 90° |
| 2026-05-05 13:09 | -41.38391 | 168.86394 | 27517 ft | 438 kts | 90° |
| 2026-05-05 13:10 | -41.38457 | 168.90434 | 27313 ft | 435 kts | 90° |
| 2026-05-05 13:10 | -41.38522 | 168.94467 | 27112 ft | 436 kts | 90° |
| 2026-05-05 13:10 | -41.38584 | 168.98494 | 26914 ft | 434 kts | 90° |
| 2026-05-05 13:10 | -41.38646 | 169.02495 | 26719 ft | 432 kts | 90° |
| 2026-05-05 13:11 | -41.38707 | 169.06508 | 26521 ft | 431 kts | 90° |
| 2026-05-05 13:11 | -41.38765 | 169.10488 | 26319 ft | 429 kts | 90° |
| 2026-05-05 13:11 | -41.38822 | 169.14464 | 26133 ft | 428 kts | 90° |
| 2026-05-05 13:11 | -41.38877 | 169.18419 | 25940 ft | 427 kts | 90° |
| 2026-05-05 13:12 | -41.38931 | 169.22361 | 25748 ft | 424 kts | 90° |
| 2026-05-05 13:12 | -41.38984 | 169.26289 | 25557 ft | 424 kts | 90° |
| 2026-05-05 13:12 | -41.39034 | 169.30207 | 25375 ft | 422 kts | 90° |
| 2026-05-05 13:12 | -41.39083 | 169.34115 | 25184 ft | 420 kts | 90° |
| 2026-05-05 13:13 | -41.39131 | 169.38011 | 24997 ft | 419 kts | 90° |
| 2026-05-05 13:13 | -41.39176 | 169.41844 | 24813 ft | 418 kts | 90° |
| 2026-05-05 13:13 | -41.39222 | 169.45701 | 24628 ft | 416 kts | 89° |
| 2026-05-05 13:13 | -41.39265 | 169.49549 | 24447 ft | 414 kts | 89° |
| 2026-05-05 13:14 | -41.39306 | 169.53376 | 24266 ft | 413 kts | 89° |
| 2026-05-05 13:14 | -41.39347 | 169.57196 | 24084 ft | 412 kts | 89° |
| 2026-05-05 13:14 | -41.39386 | 169.61004 | 23880 ft | 411 kts | 90° |
| 2026-05-05 13:14 | -41.39423 | 169.64800 | 23661 ft | 409 kts | 89° |
| 2026-05-05 13:15 | -41.39460 | 169.68580 | 23444 ft | 407 kts | 89° |
| 2026-05-05 13:15 | -41.39495 | 169.72345 | 23232 ft | 406 kts | 89° |
| 2026-05-05 13:15 | -41.39529 | 169.76104 | 23019 ft | 405 kts | 89° |
| 2026-05-05 13:15 | -41.39561 | 169.79843 | 22807 ft | 403 kts | 89° |
| 2026-05-05 13:16 | -41.39592 | 169.83569 | 22596 ft | 401 kts | 89° |
| 2026-05-05 13:16 | -41.39621 | 169.87272 | 22390 ft | 399 kts | 89° |
| 2026-05-05 13:16 | -41.39650 | 169.90971 | 22182 ft | 398 kts | 89° |
| 2026-05-05 13:16 | -41.39676 | 169.94606 | 21979 ft | 397 kts | 89° |
| 2026-05-05 13:17 | -41.39702 | 169.98274 | 21775 ft | 395 kts | 89° |
| 2026-05-05 13:17 | -41.39727 | 170.01931 | 21571 ft | 394 kts | 89° |
| 2026-05-05 13:17 | -41.39750 | 170.05576 | 21369 ft | 393 kts | 89° |
| 2026-05-05 13:17 | -41.39773 | 170.09204 | 21169 ft | 391 kts | 89° |
| 2026-05-05 13:18 | -41.39796 | 170.12821 | 20970 ft | 390 kts | 89° |
| 2026-05-05 13:18 | -41.39817 | 170.16427 | 20772 ft | 389 kts | 89° |
| 2026-05-05 13:18 | -41.39838 | 170.20014 | 20573 ft | 386 kts | 88° |
| 2026-05-05 13:18 | -41.39858 | 170.23591 | 20377 ft | 385 kts | 88° |
| 2026-05-05 13:19 | -41.39870 | 170.25954 | 20249 ft | 385 kts | 88° |
| 2026-05-05 13:19 | -41.39887 | 170.29514 | 20055 ft | 383 kts | 88° |
| 2026-05-05 13:19 | -41.39908 | 170.34203 | 19807 ft | 382 kts | 88° |
| 2026-05-05 13:19 | -41.39923 | 170.37733 | 19616 ft | 380 kts | 88° |
| 2026-05-05 13:20 | -41.39859 | 170.41244 | 19423 ft | 378 kts | 85° |
| 2026-05-05 13:20 | -41.39804 | 170.44746 | 19239 ft | 378 kts | 87° |
| 2026-05-05 13:20 | -41.39796 | 170.47108 | 19116 ft | 377 kts | 87° |
| 2026-05-05 13:20 | -41.39791 | 170.50591 | 18930 ft | 376 kts | 87° |
| 2026-05-05 13:21 | -41.39782 | 170.54067 | 18736 ft | 374 kts | 87° |
| 2026-05-05 13:21 | -41.39766 | 170.57495 | 18525 ft | 373 kts | 87° |
| 2026-05-05 13:21 | -41.39743 | 170.60949 | 18311 ft | 372 kts | 87° |
| 2026-05-05 13:21 | -41.39716 | 170.64390 | 18091 ft | 371 kts | 87° |
| 2026-05-05 13:22 | -41.39686 | 170.67828 | 17894 ft | 371 kts | 86° |
| 2026-05-05 13:22 | -41.39654 | 170.71255 | 17677 ft | 370 kts | 86° |
| 2026-05-05 13:22 | -41.39621 | 170.74681 | 17469 ft | 369 kts | 86° |
| 2026-05-05 13:22 | -41.39588 | 170.78096 | 17264 ft | 368 kts | 86° |
| 2026-05-05 13:23 | -41.39554 | 170.81499 | 17058 ft | 367 kts | 86° |
| 2026-05-05 13:23 | -41.39519 | 170.84901 | 16854 ft | 366 kts | 86° |
| 2026-05-05 13:23 | -41.39482 | 170.88287 | 16648 ft | 366 kts | 86° |
| 2026-05-05 13:23 | -41.39445 | 170.91668 | 16443 ft | 365 kts | 86° |
| 2026-05-05 13:24 | -41.39407 | 170.95040 | 16243 ft | 364 kts | 86° |
| 2026-05-05 13:24 | -41.39369 | 170.98373 | 16047 ft | 363 kts | 86° |
| 2026-05-05 13:24 | -41.39329 | 171.01778 | 15847 ft | 362 kts | 86° |
| 2026-05-05 13:24 | -41.39289 | 171.05087 | 15654 ft | 362 kts | 86° |
| 2026-05-05 13:25 | -41.39247 | 171.08437 | 15459 ft | 361 kts | 86° |
| 2026-05-05 13:25 | -41.39205 | 171.11785 | 15265 ft | 360 kts | 86° |
| 2026-05-05 13:25 | -41.39162 | 171.15118 | 15072 ft | 359 kts | 86° |
| 2026-05-05 13:25 | -41.39118 | 171.18443 | 14881 ft | 359 kts | 86° |
| 2026-05-05 13:26 | -41.39072 | 171.21768 | 14690 ft | 358 kts | 86° |
| 2026-05-05 13:26 | -41.39027 | 171.25078 | 14501 ft | 357 kts | 86° |
| 2026-05-05 13:26 | -41.38980 | 171.28386 | 14303 ft | 357 kts | 86° |
| 2026-05-05 13:26 | -41.38932 | 171.31679 | 14094 ft | 356 kts | 86° |
| 2026-05-05 13:27 | -41.38884 | 171.34932 | 13885 ft | 354 kts | 86° |
| 2026-05-05 13:27 | -41.38836 | 171.38209 | 13676 ft | 353 kts | 86° |
| 2026-05-05 13:27 | -41.38786 | 171.41480 | 13468 ft | 352 kts | 86° |
| 2026-05-05 13:27 | -41.38735 | 171.44738 | 13264 ft | 351 kts | 86° |
| 2026-05-05 13:28 | -41.38684 | 171.47986 | 13060 ft | 350 kts | 86° |
| 2026-05-05 13:28 | -41.38632 | 171.51230 | 12857 ft | 349 kts | 86° |
| 2026-05-05 13:28 | -41.38579 | 171.54460 | 12654 ft | 348 kts | 86° |
| 2026-05-05 13:28 | -41.38525 | 171.57687 | 12450 ft | 347 kts | 86° |
| 2026-05-05 13:29 | -41.38470 | 171.60902 | 12250 ft | 346 kts | 86° |
| 2026-05-05 13:29 | -41.38415 | 171.64099 | 12051 ft | 345 kts | 86° |
| 2026-05-05 13:29 | -41.38359 | 171.67298 | 11847 ft | 345 kts | 86° |
| 2026-05-05 13:29 | -41.38303 | 171.70447 | 11654 ft | 345 kts | 86° |
| 2026-05-05 13:30 | -41.38245 | 171.73643 | 11458 ft | 344 kts | 86° |
| 2026-05-05 13:30 | -41.38187 | 171.76813 | 11264 ft | 343 kts | 86° |
| 2026-05-05 13:30 | -41.38128 | 171.79986 | 11071 ft | 342 kts | 86° |
| 2026-05-05 13:30 | -41.38069 | 171.83147 | 10883 ft | 341 kts | 86° |
| 2026-05-05 13:31 | -41.38008 | 171.86299 | 10692 ft | 340 kts | 86° |
| 2026-05-05 13:31 | -41.37947 | 171.89450 | 10503 ft | 339 kts | 86° |
| 2026-05-05 13:31 | -41.37886 | 171.92568 | 10306 ft | 332 kts | 86° |
| 2026-05-05 13:31 | -41.37828 | 171.95588 | 10094 ft | 320 kts | 85° |
| 2026-05-05 13:32 | -41.37770 | 171.98500 | 9883 ft | 308 kts | 85° |
| 2026-05-05 13:32 | -41.37713 | 172.01299 | 9674 ft | 297 kts | 85° |
| 2026-05-05 13:32 | -41.37656 | 172.04002 | 9453 ft | 287 kts | 86° |
| 2026-05-05 13:32 | -41.37597 | 172.06661 | 9250 ft | 289 kts | 86° |
| 2026-05-05 13:33 | -41.37538 | 172.09337 | 9046 ft | 288 kts | 86° |
| 2026-05-05 13:33 | -41.37481 | 172.11955 | 8946 ft | 286 kts | 86° |
| 2026-05-05 13:33 | -41.37423 | 172.14601 | 8865 ft | 285 kts | 86° |
| 2026-05-05 13:33 | -41.37366 | 172.17244 | 8787 ft | 285 kts | 86° |
| 2026-05-05 13:34 | -41.37307 | 172.19882 | 8717 ft | 286 kts | 86° |
| 2026-05-05 13:34 | -41.37249 | 172.22528 | 8645 ft | 285 kts | 86° |
| 2026-05-05 13:34 | -41.37191 | 172.25163 | 8571 ft | 285 kts | 86° |
| 2026-05-05 13:34 | -41.37131 | 172.27799 | 8476 ft | 285 kts | 86° |
| 2026-05-05 13:35 | -41.37070 | 172.30444 | 8419 ft | 285 kts | 86° |
| 2026-05-05 13:35 | -41.37007 | 172.33080 | 8361 ft | 284 kts | 86° |
| 2026-05-05 13:35 | -41.36945 | 172.35662 | 8400 ft | 284 kts | 86° |
| 2026-05-05 13:35 | -41.36883 | 172.38295 | 8425 ft | 284 kts | 86° |
| 2026-05-05 13:36 | -41.36820 | 172.40927 | 8446 ft | 284 kts | 86° |
| 2026-05-05 13:36 | -41.36763 | 172.43273 | 8446 ft | 285 kts | 86° |
| 2026-05-05 13:36 | -41.36699 | 172.45883 | 8451 ft | 286 kts | 86° |
| 2026-05-05 13:36 | -41.36636 | 172.48532 | 8450 ft | 285 kts | 86° |
| 2026-05-05 13:37 | -41.36571 | 172.51158 | 8453 ft | 284 kts | 86° |
| 2026-05-05 13:37 | -41.36504 | 172.53802 | 8451 ft | 286 kts | 86° |
| 2026-05-05 13:37 | -41.36436 | 172.56434 | 8382 ft | 284 kts | 86° |
| 2026-05-05 13:37 | -41.36369 | 172.59070 | 8320 ft | 285 kts | 86° |
| 2026-05-05 13:38 | -41.36302 | 172.61673 | 8228 ft | 283 kts | 86° |
| 2026-05-05 13:38 | -41.36235 | 172.64300 | 8171 ft | 285 kts | 86° |
| 2026-05-05 13:38 | -41.36165 | 172.66936 | 8089 ft | 284 kts | 86° |
| 2026-05-05 13:38 | -41.36096 | 172.69559 | 8022 ft | 283 kts | 86° |
| 2026-05-05 13:39 | -41.36026 | 172.72180 | 7949 ft | 283 kts | 86° |
| 2026-05-05 13:39 | -41.35956 | 172.74801 | 7873 ft | 283 kts | 86° |
| 2026-05-05 13:39 | -41.35886 | 172.77417 | 7800 ft | 282 kts | 86° |
| 2026-05-05 13:39 | -41.35815 | 172.80030 | 7728 ft | 282 kts | 86° |
| 2026-05-05 13:40 | -41.35744 | 172.82643 | 7661 ft | 282 kts | 86° |
| 2026-05-05 13:40 | -41.35671 | 172.85250 | 7587 ft | 282 kts | 86° |
| 2026-05-05 13:40 | -41.35600 | 172.87819 | 7515 ft | 281 kts | 86° |
| 2026-05-05 13:40 | -41.35527 | 172.90421 | 7450 ft | 281 kts | 86° |
| 2026-05-05 13:41 | -41.35458 | 172.93013 | 7371 ft | 280 kts | 86° |
| 2026-05-05 13:41 | -41.35382 | 172.95606 | 7302 ft | 280 kts | 86° |
| 2026-05-05 13:41 | -41.35306 | 172.98197 | 7230 ft | 279 kts | 86° |
| 2026-05-05 13:41 | -41.35228 | 173.00779 | 7157 ft | 279 kts | 86° |
| 2026-05-05 13:42 | -41.35151 | 173.03362 | 7083 ft | 279 kts | 86° |
| 2026-05-05 13:42 | -41.35077 | 173.05923 | 7020 ft | 278 kts | 86° |
| 2026-05-05 13:42 | -41.35001 | 173.08500 | 6945 ft | 278 kts | 86° |
| 2026-05-05 13:42 | -41.34924 | 173.11076 | 6895 ft | 277 kts | 85° |
| 2026-05-05 13:43 | -41.34848 | 173.13616 | 6865 ft | 277 kts | 85° |
| 2026-05-05 13:43 | -41.34770 | 173.16182 | 6846 ft | 277 kts | 85° |
| 2026-05-05 13:43 | -41.34690 | 173.18767 | 6817 ft | 280 kts | 85° |
| 2026-05-05 13:43 | -41.34610 | 173.21362 | 6796 ft | 279 kts | 85° |
| 2026-05-05 13:44 | -41.34531 | 173.23910 | 6770 ft | 279 kts | 85° |
| 2026-05-05 13:44 | -41.34450 | 173.26493 | 6738 ft | 278 kts | 85° |
| 2026-05-05 13:44 | -41.34369 | 173.29070 | 6713 ft | 279 kts | 85° |
| 2026-05-05 13:44 | -41.34287 | 173.31649 | 6690 ft | 279 kts | 85° |
| 2026-05-05 13:45 | -41.34204 | 173.34233 | 6663 ft | 279 kts | 85° |
| 2026-05-05 13:45 | -41.34121 | 173.36814 | 6647 ft | 280 kts | 85° |
| 2026-05-05 13:45 | -41.34043 | 173.39397 | 6606 ft | 278 kts | 86° |
| 2026-05-05 13:45 | -41.33960 | 173.41965 | 6586 ft | 280 kts | 85° |
| 2026-05-05 13:46 | -41.33872 | 173.44554 | 6565 ft | 279 kts | 85° |
| 2026-05-05 13:46 | -41.33783 | 173.47135 | 6524 ft | 279 kts | 85° |
| 2026-05-05 13:46 | -41.33696 | 173.49713 | 6502 ft | 279 kts | 85° |
| 2026-05-05 13:46 | -41.33609 | 173.52291 | 6488 ft | 279 kts | 85° |
| 2026-05-05 13:47 | -41.33525 | 173.54845 | 6459 ft | 279 kts | 84° |
| 2026-05-05 13:47 | -41.33441 | 173.57420 | 6438 ft | 280 kts | 84° |
| 2026-05-05 13:47 | -41.33351 | 173.60002 | 6410 ft | 277 kts | 85° |
| 2026-05-05 13:47 | -41.33261 | 173.62578 | 6367 ft | 279 kts | 84° |
| 2026-05-05 13:48 | -41.33172 | 173.65153 | 6346 ft | 280 kts | 85° |
| 2026-05-05 13:48 | -41.33079 | 173.67745 | 6322 ft | 280 kts | 85° |
| 2026-05-05 13:48 | -41.32991 | 173.70324 | 6309 ft | 279 kts | 85° |
| 2026-05-05 13:48 | -41.32894 | 173.72918 | 6266 ft | 281 kts | 84° |
| 2026-05-05 13:49 | -41.32798 | 173.75512 | 6250 ft | 280 kts | 85° |
| 2026-05-05 13:49 | -41.32709 | 173.78091 | 6204 ft | 279 kts | 85° |
| 2026-05-05 13:49 | -41.32620 | 173.80687 | 6187 ft | 283 kts | 84° |
| 2026-05-05 13:49 | -41.32531 | 173.83288 | 6155 ft | 280 kts | 84° |
| 2026-05-05 13:50 | -41.32437 | 173.85839 | 6139 ft | 280 kts | 84° |
| 2026-05-05 13:50 | -41.32343 | 173.88444 | 6116 ft | 281 kts | 84° |
| 2026-05-05 13:50 | -41.32246 | 173.91029 | 6096 ft | 280 kts | 84° |
| 2026-05-05 13:50 | -41.32158 | 173.93610 | 6055 ft | 276 kts | 86° |
| 2026-05-05 13:51 | -41.32347 | 173.96160 | 5972 ft | 280 kts | 99° |
| 2026-05-05 13:51 | -41.32929 | 173.98665 | 5863 ft | 287 kts | 107° |
| 2026-05-05 13:51 | -41.33617 | 174.01164 | 5743 ft | 287 kts | 107° |
| 2026-05-05 13:51 | -41.34297 | 174.03641 | 5607 ft | 284 kts | 107° |
| 2026-05-05 13:52 | -41.34950 | 174.06099 | 5598 ft | 282 kts | 107° |
| 2026-05-05 13:52 | -41.35603 | 174.08566 | 5581 ft | 281 kts | 107° |
| 2026-05-05 13:52 | -41.36255 | 174.11036 | 5459 ft | 284 kts | 107° |
| 2026-05-05 13:52 | -41.36915 | 174.13525 | 5312 ft | 284 kts | 108° |
| 2026-05-05 13:53 | -41.37562 | 174.15966 | 5163 ft | 277 kts | 108° |
| 2026-05-05 13:53 | -41.38221 | 174.18437 | 5036 ft | 287 kts | 107° |
| 2026-05-05 13:53 | -41.38873 | 174.20886 | 4908 ft | 280 kts | 108° |
| 2026-05-05 13:53 | -41.39524 | 174.23336 | 4779 ft | 283 kts | 108° |
| 2026-05-05 13:54 | -41.40187 | 174.25827 | 4653 ft | 286 kts | 107° |
| 2026-05-05 13:54 | -41.40846 | 174.28314 | 4530 ft | 281 kts | 108° |
| 2026-05-05 13:54 | -41.41503 | 174.30784 | 4397 ft | 287 kts | 106° |
| 2026-05-05 13:54 | -41.42168 | 174.33306 | 4278 ft | 286 kts | 107° |
| 2026-05-05 13:55 | -41.42836 | 174.35828 | 4173 ft | 296 kts | 106° |
| 2026-05-05 13:55 | -41.43522 | 174.38432 | 4044 ft | 296 kts | 106° |
| 2026-05-05 13:55 | -41.44192 | 174.40974 | 3934 ft | 289 kts | 107° |
| 2026-05-05 13:55 | -41.44849 | 174.43469 | 3809 ft | 281 kts | 107° |
| 2026-05-05 13:56 | -41.45488 | 174.45895 | 3678 ft | 272 kts | 106° |
| 2026-05-05 13:56 | -41.46104 | 174.48229 | 3552 ft | 263 kts | 106° |
| 2026-05-05 13:56 | -41.46698 | 174.50494 | 3432 ft | 254 kts | 107° |
| 2026-05-05 13:56 | -41.47274 | 174.52696 | 3285 ft | 253 kts | 107° |
| 2026-05-05 13:57 | -41.47857 | 174.54926 | 3129 ft | 256 kts | 106° |
| 2026-05-05 13:57 | -41.48447 | 174.57194 | 2989 ft | 258 kts | 107° |
| 2026-05-05 13:57 | -41.48990 | 174.59436 | 2814 ft | 257 kts | 99° |
| 2026-05-05 13:57 | -41.49175 | 174.61766 | 2663 ft | 249 kts | 88° |
| 2026-05-05 13:58 | -41.49253 | 174.64029 | 2508 ft | 240 kts | 88° |
| 2026-05-05 13:58 | -41.49339 | 174.66212 | 2357 ft | 231 kts | 88° |
| 2026-05-05 13:58 | -41.49429 | 174.68311 | 2195 ft | 222 kts | 86° |
| 2026-05-05 13:59 | -41.49496 | 174.69843 | 2106 ft | 214 kts | 85° |
| 2026-05-05 13:59 | -41.49575 | 174.71743 | 1976 ft | 202 kts | 84° |
| 2026-05-05 14:00 | -41.49709 | 174.75447 | 1949 ft | 195 kts | 84° |
| 2026-05-05 14:00 | -41.49756 | 174.76603 | 1949 ft | 184 kts | 84° |
| 2026-05-05 14:00 | -41.49539 | 174.78753 | 1954 ft | 164 kts | 47° |
| 2026-05-05 14:00 | -41.48702 | 174.79584 | 1966 ft | 147 kts | 10° |
| 2026-05-05 14:01 | -41.47695 | 174.79690 | 1985 ft | 143 kts | 356° |
| 2026-05-05 14:01 | -41.46682 | 174.79737 | 1993 ft | 147 kts | 357° |
| 2026-05-05 14:01 | -41.45674 | 174.79800 | 1997 ft | 145 kts | 358° |
| 2026-05-05 14:01 | -41.44680 | 174.79871 | 1994 ft | 141 kts | 357° |
| 2026-05-05 14:02 | -41.43719 | 174.79935 | 1839 ft | 136 kts | 359° |
| 2026-05-05 14:02 | -41.42809 | 174.79995 | 1695 ft | 125 kts | 359° |
| 2026-05-05 14:02 | -41.41963 | 174.80054 | 1495 ft | 119 kts | 360° |
| 2026-05-05 14:02 | -41.41225 | 174.80109 | 1422 ft | 103 kts | 360° |
| 2026-05-05 14:03 | -41.40443 | 174.80157 | 1398 ft | 125 kts | 1° |
| 2026-05-05 14:03 | -41.39577 | 174.80209 | 1386 ft | 122 kts | 1° |
| 2026-05-05 14:03 | -41.38761 | 174.80265 | 1267 ft | 115 kts | 1° |
| 2026-05-05 14:03 | -41.37935 | 174.80315 | 827 ft | 126 kts | 4° |
| 2026-05-05 14:04 | -41.37049 | 174.80374 | 718 ft | 135 kts | 2° |
| 2026-05-05 14:04 | -41.36032 | 174.80438 | 661 ft | 156 kts | 4° |
| 2026-05-05 14:04 | -41.34967 | 174.80505 | 549 ft | 146 kts | 4° |
| 2026-05-05 14:04 | -41.33981 | 174.80588 | 212 ft | 133 kts | 7° |
| 2026-05-05 14:05 | -41.33130 | 174.80662 | 27 ft | 111 kts | 5° |
| 2026-05-05 14:05 | -41.32605 | 174.80701 | 27 ft | 33 kts | 1° |
| 2026-05-05 14:05 | -41.32454 | 174.80710 | 33 ft | 24 kts | 19° |
| 2026-05-05 14:05 | -41.32442 | 174.80824 | 33 ft | 14 kts | 160° |
| 2026-05-05 14:06 | -41.32543 | 174.80824 | 30 ft | 16 kts | 183° |
| 2026-05-05 14:06 | -41.32656 | 174.80819 | 29 ft | 17 kts | 178° |
| 2026-05-05 14:06 | -41.32744 | 174.80875 | 29 ft | 13 kts | 169° |
| 2026-05-05 14:06 | -41.32829 | 174.80883 | 28 ft | 12 kts | 179° |
| 2026-05-05 14:07 | -41.32849 | 174.80910 | 28 ft | 2 kts | 89° |
| 2026-05-05 14:07 | -41.32842 | 174.80946 | 27 ft | 5 kts | 70° |
| 2026-05-05 14:07 | -41.32835 | 174.80971 | 29 ft | 0 kts | 70° |